Wetterdaten: Woche 04.06.12 - 10.06.12 (KW23)
Datum Zeit Temp. Innen Temp. Aussen UV X Diff Temp. Feuchte Inne Feuchte Auss Sonnenschein Luftdruck Regen ab 0,1 Wind Sonnenschein T Regendauer Windben
04.06.2012 00:00 20,0 C 9,1 C 0,0 UV-I 0,0 C 54 % 96 % 0 % 1011,1 hPa 0,0 l/m 0,5 km/h (0 Bft) 0,00 h 0,00 h 2,8 km/h (1 Bft)
04.06.2012 01:00 19,9 C 8,9 C 0,0 UV-I 0,0 C 54 % 96 % 0 % 1010,9 hPa 0,0 l/m 0,8 km/h (0 Bft) 0,00 h 0,00 h 2,7 km/h (1 Bft)
04.06.2012 02:00 19,9 C 8,8 C 0,0 UV-I 0,0 C 54 % 96 % 0 % 1010,9 hPa 0,0 l/m 0,5 km/h (0 Bft) 0,00 h 0,03 h 1,8 km/h (1 Bft)
04.06.2012 03:00 19,8 C 8,9 C 0,0 UV-I 0,0 C 54 % 96 % 0 % 1010,6 hPa 0,0 l/m 0,3 km/h (0 Bft) 0,00 h 0,00 h 0,2 km/h (0 Bft)
04.06.2012 04:00 19,8 C 9,0 C 0,0 UV-I 0,0 C 54 % 97 % 0 % 1010,2 hPa 0,0 l/m 0,0 km/h (0 Bft) 0,00 h 0,10 h 0,3 km/h (0 Bft)
04.06.2012 05:00 19,8 C 9,1 C 0,0 UV-I 0,0 C 54 % 97 % 0 % 1010,1 hPa 0,0 l/m 0,0 km/h (0 Bft) 0,00 h 0,13 h 0,5 km/h (0 Bft)
04.06.2012 06:00 19,7 C 9,1 C 0,0 UV-I 0,0 C 54 % 97 % 0 % 1009,9 hPa 0,0 l/m 0,2 km/h (0 Bft) 0,00 h 0,00 h 1,5 km/h (1 Bft)
04.06.2012 07:00 19,7 C 9,3 C 0,0 UV-I 0,0 C 54 % 97 % 0 % 1009,9 hPa 0,1 l/m 0,1 km/h (0 Bft) 0,00 h 0,00 h 0,9 km/h (0 Bft)
04.06.2012 08:00 19,8 C 10,2 C 0,2 UV-I 1,3 C 55 % 97 % 39 % 1009,7 hPa 0,0 l/m 1,2 km/h (1 Bft) 0,00 h 0,00 h 4,1 km/h (1 Bft)
04.06.2012 09:00 20,1 C 11,8 C 0,5 UV-I 2,5 C 55 % 97 % 71 % 1009,3 hPa 0,0 l/m 2,5 km/h (1 Bft) 0,33 h 0,00 h 6,5 km/h (2 Bft)
04.06.2012 10:00 20,3 C 13,5 C 0,5 UV-I 2,6 C 55 % 96 % 74 % 1008,9 hPa 0,0 l/m 1,4 km/h (1 Bft) 0,20 h 0,00 h 4,7 km/h (1 Bft)
04.06.2012 11:00 20,5 C 14,6 C 0,4 UV-I 1,4 C 55 % 94 % 41 % 1008,3 hPa 0,1 l/m 1,8 km/h (1 Bft) 0,00 h 0,47 h 5,7 km/h (1 Bft)
04.06.2012 12:00 20,6 C 14,8 C 0,5 UV-I 0,9 C 56 % 94 % 25 % 1008,0 hPa 0,7 l/m 0,9 km/h (0 Bft) 0,00 h 0,33 h 2,7 km/h (1 Bft)
04.06.2012 13:00 20,6 C 15,1 C 0,3 UV-I 0,2 C 56 % 91 % 5 % 1007,9 hPa 1,0 l/m 2,6 km/h (1 Bft) 0,00 h 0,77 h 6,0 km/h (2 Bft)
04.06.2012 14:00 20,6 C 14,5 C 0,9 UV-I 0,1 C 57 % 93 % 3 % 1008,0 hPa 0,5 l/m 3,2 km/h (1 Bft) 0,00 h 0,47 h 8,9 km/h (2 Bft)
04.06.2012 15:00 20,7 C 14,5 C 0,6 UV-I 0,1 C 58 % 93 % 4 % 1007,6 hPa 1,4 l/m 2,3 km/h (1 Bft) 0,00 h 0,27 h 5,2 km/h (1 Bft)
04.06.2012 16:00 20,7 C 14,5 C 0,3 UV-I 0,2 C 58 % 94 % 5 % 1007,1 hPa 1,1 l/m 3,5 km/h (1 Bft) 0,00 h 0,33 h 6,9 km/h (2 Bft)
04.06.2012 17:00 20,5 C 11,5 C 0,0 UV-I 0,0 C 59 % 93 % 0 % 1007,9 hPa 0,2 l/m 15,9 km/h (3 Bft) 0,00 h 0,23 h 31,3 km/h (5 Bft)
04.06.2012 18:00 20,1 C 9,1 C 0,0 UV-I 0,0 C 58 % 94 % 0 % 1009,7 hPa 1,1 l/m 17,2 km/h (3 Bft) 0,00 h 0,47 h 25,6 km/h (4 Bft)
04.06.2012 19:00 19,9 C 8,4 C 0,0 UV-I 0,0 C 57 % 95 % 0 % 1011,2 hPa 0,7 l/m 12,3 km/h (3 Bft) 0,00 h 0,03 h 20,0 km/h (4 Bft)
04.06.2012 20:00 19,7 C 8,6 C 0,0 UV-I 0,0 C 57 % 96 % 0 % 1012,8 hPa 0,1 l/m 6,5 km/h (2 Bft) 0,00 h 0,00 h 14,4 km/h (3 Bft)
04.06.2012 21:00 19,6 C 8,7 C 0,0 UV-I 0,0 C 56 % 96 % 0 % 1014,1 hPa 0,0 l/m 1,3 km/h (1 Bft) 0,00 h 0,00 h 3,2 km/h (1 Bft)
04.06.2012 22:00 19,5 C 8,8 C 0,0 UV-I 0,0 C 56 % 96 % 0 % 1014,9 hPa 0,0 l/m 0,9 km/h (0 Bft) 0,00 h 0,00 h 3,5 km/h (1 Bft)
04.06.2012 23:00 19,3 C 8,8 C 0,0 UV-I 0,0 C 56 % 96 % 0 % 1015,3 hPa 0,0 l/m 1,5 km/h (1 Bft) 0,00 h 0,17 h 4,2 km/h (1 Bft)
05.06.2012 00:00 19,2 C 8,8 C 0,0 UV-I 0,0 C 56 % 96 % 0 % 1015,7 hPa 0,0 l/m 1,6 km/h (1 Bft) 0,00 h 0,07 h 4,6 km/h (1 Bft)
05.06.2012 01:00 19,2 C 8,6 C 0,0 UV-I 0,0 C 55 % 96 % 0 % 1016,1 hPa 0,0 l/m 0,3 km/h (0 Bft) 0,00 h 0,00 h 2,8 km/h (1 Bft)
05.06.2012 02:00 19,2 C 8,2 C 0,0 UV-I 0,0 C 55 % 96 % 0 % 1016,5 hPa 0,0 l/m 0,6 km/h (0 Bft) 0,00 h 0,00 h 2,0 km/h (1 Bft)
05.06.2012 03:00 19,1 C 7,8 C 0,0 UV-I 0,0 C 55 % 96 % 0 % 1016,8 hPa 0,0 l/m 1,5 km/h (1 Bft) 0,00 h 0,00 h 5,6 km/h (1 Bft)
05.06.2012 04:00 19,0 C 7,4 C 0,0 UV-I 0,0 C 54 % 95 % 0 % 1017,2 hPa 0,0 l/m 1,1 km/h (1 Bft) 0,00 h 0,00 h 3,7 km/h (1 Bft)
05.06.2012 05:00 18,8 C 6,7 C 0,0 UV-I 0,0 C 54 % 96 % 0 % 1017,6 hPa 0,0 l/m 0,7 km/h (0 Bft) 0,00 h 0,00 h 3,0 km/h (1 Bft)
05.06.2012 06:00 18,8 C 6,4 C 0,0 UV-I 0,0 C 53 % 96 % 0 % 1018,0 hPa 0,0 l/m 0,1 km/h (0 Bft) 0,00 h 0,00 h 0,8 km/h (0 Bft)
05.06.2012 07:00 18,7 C 7,1 C 0,0 UV-I 0,0 C 53 % 96 % 0 % 1018,3 hPa 0,0 l/m 1,0 km/h (0 Bft) 0,00 h 0,00 h 3,8 km/h (1 Bft)
05.06.2012 08:00 18,8 C 9,0 C 0,6 UV-I 7,0 C 53 % 95 % 86 % 1018,5 hPa 0,0 l/m 1,2 km/h (1 Bft) 0,83 h 0,00 h 2,7 km/h (1 Bft)
05.06.2012 09:00 18,9 C 11,2 C 1,7 UV-I 7,6 C 53 % 88 % 100 % 1019,0 hPa 0,0 l/m 2,6 km/h (1 Bft) 1,00 h 0,00 h 6,5 km/h (2 Bft)
05.06.2012 10:00 19,2 C 12,7 C 3,2 UV-I 7,2 C 51 % 76 % 100 % 1019,2 hPa 0,0 l/m 2,7 km/h (1 Bft) 1,00 h 0,00 h 7,7 km/h (2 Bft)
05.06.2012 11:00 19,4 C 13,3 C 2,4 UV-I 6,3 C 50 % 69 % 99 % 1019,4 hPa 0,0 l/m 3,3 km/h (1 Bft) 1,00 h 0,00 h 8,8 km/h (2 Bft)
05.06.2012 12:00 19,7 C 14,1 C 2,4 UV-I 6,2 C 48 % 64 % 100 % 1019,1 hPa 0,0 l/m 3,2 km/h (1 Bft) 1,00 h 0,00 h 7,3 km/h (2 Bft)
05.06.2012 13:00 20,1 C 14,5 C 2,0 UV-I 5,1 C 46 % 60 % 100 % 1018,7 hPa 0,0 l/m 3,4 km/h (1 Bft) 1,00 h 0,00 h 7,8 km/h (2 Bft)
05.06.2012 14:00 20,6 C 15,1 C 2,3 UV-I 5,1 C 46 % 59 % 100 % 1018,1 hPa 0,0 l/m 3,6 km/h (1 Bft) 1,00 h 0,00 h 9,2 km/h (2 Bft)
05.06.2012 15:00 22,3 C 16,7 C 2,9 UV-I 7,0 C 43 % 54 % 100 % 1017,5 hPa 0,0 l/m 3,8 km/h (1 Bft) 1,00 h 0,00 h 7,6 km/h (2 Bft)
05.06.2012 16:00 24,0 C 17,4 C 3,5 UV-I 6,9 C 38 % 52 % 100 % 1016,1 hPa 0,0 l/m 4,4 km/h (1 Bft) 1,00 h 0,00 h 8,1 km/h (2 Bft)
05.06.2012 17:00 24,6 C 18,0 C 3,5 UV-I 6,7 C 37 % 51 % 100 % 1015,3 hPa 0,0 l/m 3,1 km/h (1 Bft) 1,00 h 0,00 h 6,2 km/h (2 Bft)
05.06.2012 18:00 24,1 C 16,9 C 1,2 UV-I 3,9 C 38 % 53 % 90 % 1015,0 hPa 0,0 l/m 2,3 km/h (1 Bft) 0,83 h 0,00 h 5,9 km/h (2 Bft)
05.06.2012 19:00 23,1 C 16,1 C 0,5 UV-I 0,3 C 40 % 55 % 9 % 1014,8 hPa 0,0 l/m 1,8 km/h (1 Bft) 0,00 h 0,00 h 4,8 km/h (1 Bft)
05.06.2012 20:00 22,4 C 15,7 C 0,1 UV-I 0,0 C 42 % 58 % 0 % 1014,2 hPa 0,0 l/m 1,3 km/h (1 Bft) 0,00 h 0,00 h 3,3 km/h (1 Bft)
05.06.2012 21:00 21,8 C 14,9 C 0,0 UV-I 0,0 C 43 % 62 % 0 % 1013,9 hPa 0,0 l/m 0,1 km/h (0 Bft) 0,00 h 0,00 h 0,3 km/h (0 Bft)
05.06.2012 22:00 21,3 C 13,5 C 0,0 UV-I 0,0 C 45 % 68 % 0 % 1013,4 hPa 0,0 l/m 0,0 km/h (0 Bft) 0,00 h 0,00 h 0,0 km/h (0 Bft)
05.06.2012 23:00 20,8 C 12,0 C 0,0 UV-I 0,0 C 47 % 73 % 0 % 1012,7 hPa 0,0 l/m 0,0 km/h (0 Bft) 0,00 h 0,00 h 0,2 km/h (0 Bft)
06.06.2012 00:00 20,4 C 11,3 C 0,0 UV-I 0,0 C 48 % 77 % 0 % 1011,7 hPa 0,0 l/m 0,7 km/h (0 Bft) 0,00 h 0,00 h 2,7 km/h (1 Bft)
06.06.2012 01:00 20,2 C 11,2 C 0,0 UV-I 0,0 C 48 % 79 % 0 % 1011,3 hPa 0,0 l/m 4,0 km/h (1 Bft) 0,00 h 0,00 h 7,7 km/h (2 Bft)
06.06.2012 02:00 20,0 C 11,5 C 0,0 UV-I 0,0 C 48 % 80 % 0 % 1010,5 hPa 0,0 l/m 4,9 km/h (1 Bft) 0,00 h 0,00 h 8,5 km/h (2 Bft)
06.06.2012 03:00 20,0 C 11,4 C 0,0 UV-I 0,0 C 49 % 82 % 0 % 1009,8 hPa 0,0 l/m 2,6 km/h (1 Bft) 0,00 h 0,27 h 5,3 km/h (1 Bft)
06.06.2012 04:00 19,9 C 11,1 C 0,0 UV-I 0,0 C 50 % 85 % 0 % 1009,0 hPa 0,2 l/m 2,9 km/h (1 Bft) 0,00 h 0,47 h 7,1 km/h (2 Bft)
06.06.2012 05:00 19,8 C 10,8 C 0,0 UV-I 0,0 C 51 % 87 % 0 % 1008,4 hPa 0,2 l/m 3,0 km/h (1 Bft) 0,00 h 0,73 h 6,9 km/h (2 Bft)
06.06.2012 06:00 19,7 C 10,5 C 0,0 UV-I 0,0 C 52 % 90 % 0 % 1007,9 hPa 0,7 l/m 3,4 km/h (1 Bft) 0,00 h 0,97 h 6,7 km/h (2 Bft)
06.06.2012 07:00 19,7 C 10,7 C 0,0 UV-I 0,0 C 53 % 92 % 0 % 1007,1 hPa 0,1 l/m 4,6 km/h (1 Bft) 0,00 h 0,20 h 8,4 km/h (2 Bft)
06.06.2012 08:00 19,7 C 11,0 C 0,0 UV-I 0,0 C 53 % 93 % 0 % 1006,3 hPa 3,1 l/m 6,1 km/h (2 Bft) 0,00 h 0,83 h 11,4 km/h (2 Bft)
06.06.2012 09:00 19,7 C 10,9 C 0,0 UV-I 0,0 C 54 % 94 % 0 % 1005,7 hPa 3,5 l/m 5,0 km/h (1 Bft) 0,00 h 1,00 h 10,5 km/h (2 Bft)
06.06.2012 10:00 19,6 C 11,2 C 0,3 UV-I 0,2 C 55 % 95 % 5 % 1005,2 hPa 1,4 l/m 6,5 km/h (2 Bft) 0,00 h 1,00 h 10,6 km/h (2 Bft)
06.06.2012 11:00 19,9 C 12,5 C 0,4 UV-I 1,2 C 56 % 96 % 36 % 1004,7 hPa 0,5 l/m 6,3 km/h (2 Bft) 0,00 h 0,23 h 11,9 km/h (2 Bft)
06.06.2012 12:00 20,0 C 13,1 C 0,0 UV-I 0,0 C 57 % 96 % 1 % 1004,8 hPa 3,6 l/m 3,2 km/h (1 Bft) 0,00 h 0,00 h 6,7 km/h (2 Bft)
06.06.2012 13:00 20,1 C 14,2 C 1,0 UV-I 1,6 C 58 % 96 % 44 % 1004,8 hPa 0,7 l/m 1,8 km/h (1 Bft) 0,17 h 0,07 h 4,5 km/h (1 Bft)
06.06.2012 14:00 20,9 C 15,4 C 0,8 UV-I 1,8 C 57 % 95 % 49 % 1005,2 hPa 0,0 l/m 4,0 km/h (1 Bft) 0,17 h 0,07 h 7,5 km/h (2 Bft)
06.06.2012 15:00 21,4 C 16,1 C 1,3 UV-I 2,1 C 57 % 93 % 60 % 1005,5 hPa 0,0 l/m 5,7 km/h (1 Bft) 0,27 h 0,17 h 10,9 km/h (2 Bft)
06.06.2012 16:00 22,6 C 17,9 C 2,8 UV-I 4,2 C 54 % 83 % 92 % 1004,4 hPa 0,0 l/m 5,7 km/h (1 Bft) 0,80 h 0,00 h 13,0 km/h (3 Bft)
06.06.2012 17:00 23,2 C 18,5 C 2,0 UV-I 3,4 C 50 % 73 % 80 % 1005,2 hPa 0,0 l/m 4,6 km/h (1 Bft) 0,57 h 0,00 h 8,8 km/h (2 Bft)
06.06.2012 18:00 23,2 C 18,7 C 0,9 UV-I 2,2 C 50 % 72 % 58 % 1005,0 hPa 0,0 l/m 3,4 km/h (1 Bft) 0,23 h 0,00 h 6,2 km/h (2 Bft)
06.06.2012 19:00 22,6 C 18,3 C 0,5 UV-I 1,0 C 50 % 71 % 27 % 1005,9 hPa 0,0 l/m 4,5 km/h (1 Bft) 0,00 h 0,00 h 9,9 km/h (2 Bft)
06.06.2012 20:00 22,2 C 17,6 C 0,1 UV-I 0,0 C 51 % 73 % 0 % 1006,2 hPa 0,0 l/m 3,3 km/h (1 Bft) 0,00 h 0,00 h 7,7 km/h (2 Bft)
06.06.2012 21:00 21,8 C 16,8 C 0,0 UV-I 0,0 C 52 % 75 % 0 % 1006,3 hPa 0,0 l/m 0,9 km/h (0 Bft) 0,00 h 0,00 h 1,7 km/h (1 Bft)
06.06.2012 22:00 21,4 C 16,1 C 0,0 UV-I 0,0 C 53 % 77 % 0 % 1006,5 hPa 0,0 l/m 0,3 km/h (0 Bft) 0,00 h 0,00 h 0,9 km/h (0 Bft)
06.06.2012 23:00 21,2 C 15,4 C 0,0 UV-I 0,0 C 54 % 81 % 0 % 1006,4 hPa 0,0 l/m 1,3 km/h (1 Bft) 0,00 h 0,00 h 4,9 km/h (1 Bft)
07.06.2012 00:00 21,0 C 15,2 C 0,0 UV-I 0,0 C 55 % 83 % 0 % 1006,3 hPa 0,0 l/m 2,0 km/h (1 Bft) 0,00 h 0,00 h 5,2 km/h (1 Bft)
07.06.2012 01:00 20,9 C 15,3 C 0,0 UV-I 0,0 C 56 % 84 % 0 % 1006,0 hPa 0,0 l/m 2,1 km/h (1 Bft) 0,00 h 0,00 h 5,2 km/h (1 Bft)
07.06.2012 02:00 20,8 C 15,5 C 0,0 UV-I 0,0 C 56 % 84 % 0 % 1005,8 hPa 0,0 l/m 2,3 km/h (1 Bft) 0,00 h 0,10 h 5,6 km/h (1 Bft)
07.06.2012 03:00 20,8 C 15,7 C 0,0 UV-I 0,0 C 57 % 83 % 0 % 1005,7 hPa 0,0 l/m 2,1 km/h (1 Bft) 0,00 h 0,00 h 5,9 km/h (2 Bft)
07.06.2012 04:00 20,8 C 15,4 C 0,0 UV-I 0,0 C 57 % 81 % 0 % 1006,0 hPa 0,0 l/m 1,6 km/h (1 Bft) 0,00 h 0,00 h 4,5 km/h (1 Bft)
07.06.2012 05:00 20,7 C 14,8 C 0,0 UV-I 0,0 C 56 % 80 % 0 % 1005,9 hPa 0,0 l/m 1,0 km/h (0 Bft) 0,00 h 0,00 h 3,6 km/h (1 Bft)
07.06.2012 06:00 20,6 C 14,6 C 0,0 UV-I 0,0 C 56 % 81 % 0 % 1005,9 hPa 0,0 l/m 0,6 km/h (0 Bft) 0,00 h 0,00 h 2,3 km/h (1 Bft)
07.06.2012 07:00 20,6 C 14,8 C 0,0 UV-I 0,2 C 56 % 82 % 6 % 1006,0 hPa 0,0 l/m 0,1 km/h (0 Bft) 0,00 h 0,00 h 0,5 km/h (0 Bft)
07.06.2012 08:00 20,8 C 15,2 C 0,0 UV-I 0,6 C 56 % 84 % 17 % 1006,2 hPa 0,0 l/m 0,7 km/h (0 Bft) 0,00 h 0,00 h 1,9 km/h (1 Bft)
07.06.2012 09:00 21,1 C 16,0 C 0,4 UV-I 1,1 C 56 % 85 % 30 % 1006,2 hPa 0,0 l/m 3,3 km/h (1 Bft) 0,00 h 0,40 h 7,0 km/h (2 Bft)
07.06.2012 10:00 21,5 C 16,9 C 1,3 UV-I 1,9 C 56 % 86 % 55 % 1005,8 hPa 0,1 l/m 4,4 km/h (1 Bft) 0,13 h 0,17 h 8,5 km/h (2 Bft)
07.06.2012 11:00 21,9 C 18,4 C 2,1 UV-I 4,3 C 56 % 83 % 100 % 1005,1 hPa 0,0 l/m 5,5 km/h (1 Bft) 1,00 h 0,00 h 10,7 km/h (2 Bft)
07.06.2012 12:00 22,2 C 20,4 C 2,7 UV-I 5,1 C 55 % 72 % 100 % 1004,4 hPa 0,0 l/m 7,9 km/h (2 Bft) 1,00 h 0,00 h 12,2 km/h (2 Bft)
07.06.2012 13:00 22,5 C 21,6 C 2,2 UV-I 4,2 C 54 % 68 % 95 % 1003,4 hPa 0,0 l/m 6,3 km/h (2 Bft) 0,87 h 0,00 h 11,3 km/h (2 Bft)
07.06.2012 14:00 23,0 C 22,3 C 2,4 UV-I 4,0 C 54 % 68 % 96 % 1002,3 hPa 0,0 l/m 6,9 km/h (2 Bft) 0,97 h 0,00 h 11,9 km/h (2 Bft)
07.06.2012 15:00 24,1 C 23,3 C 2,4 UV-I 4,0 C 52 % 65 % 93 % 1001,1 hPa 0,0 l/m 7,6 km/h (2 Bft) 0,80 h 0,00 h 11,5 km/h (2 Bft)
07.06.2012 16:00 24,1 C 22,9 C 1,2 UV-I 1,7 C 51 % 65 % 48 % 1000,5 hPa 0,0 l/m 5,7 km/h (1 Bft) 0,03 h 0,00 h 9,8 km/h (2 Bft)
07.06.2012 17:00 23,7 C 22,4 C 0,8 UV-I 1,1 C 52 % 69 % 32 % 999,8 hPa 0,0 l/m 4,5 km/h (1 Bft) 0,00 h 0,13 h 8,3 km/h (2 Bft)
07.06.2012 18:00 23,6 C 22,6 C 0,5 UV-I 1,0 C 53 % 68 % 29 % 999,1 hPa 0,0 l/m 3,7 km/h (1 Bft) 0,00 h 0,00 h 5,8 km/h (2 Bft)
07.06.2012 19:00 23,3 C 21,9 C 0,0 UV-I 0,0 C 53 % 70 % 0 % 998,4 hPa 0,0 l/m 0,8 km/h (0 Bft) 0,00 h 0,20 h 1,4 km/h (1 Bft)
07.06.2012 20:00 23,0 C 20,5 C 0,0 UV-I 0,0 C 55 % 77 % 0 % 998,0 hPa 0,5 l/m 3,7 km/h (1 Bft) 0,00 h 0,10 h 7,6 km/h (2 Bft)
07.06.2012 21:00 22,8 C 19,5 C 0,0 UV-I 0,0 C 57 % 83 % 0 % 998,6 hPa 0,1 l/m 7,3 km/h (2 Bft) 0,00 h 0,20 h 13,2 km/h (3 Bft)
07.06.2012 22:00 22,6 C 17,4 C 0,0 UV-I 0,0 C 58 % 87 % 0 % 1000,5 hPa 0,0 l/m 0,9 km/h (0 Bft) 0,00 h 0,00 h 1,3 km/h (1 Bft)
07.06.2012 23:00 22,4 C 16,3 C 0,0 UV-I 0,0 C 59 % 90 % 0 % 1000,8 hPa 1,0 l/m 0,3 km/h (0 Bft) 0,00 h 0,10 h 1,3 km/h (1 Bft)
08.06.2012 00:00 22,2 C 16,5 C 0,0 UV-I 0,0 C 60 % 92 % 0 % 1001,6 hPa 0,1 l/m 3,6 km/h (1 Bft) 0,00 h 0,00 h 7,9 km/h (2 Bft)
08.06.2012 01:00 22,0 C 15,9 C 0,0 UV-I 0,0 C 61 % 90 % 0 % 1002,3 hPa 0,0 l/m 2,9 km/h (1 Bft) 0,00 h 0,00 h 6,1 km/h (2 Bft)
08.06.2012 02:00 21,7 C 15,4 C 0,0 UV-I 0,0 C 60 % 89 % 0 % 1003,0 hPa 0,0 l/m 1,1 km/h (1 Bft) 0,00 h 0,00 h 2,2 km/h (1 Bft)
08.06.2012 03:00 21,6 C 15,1 C 0,0 UV-I 0,0 C 60 % 89 % 0 % 1003,1 hPa 0,0 l/m 0,4 km/h (0 Bft) 0,00 h 0,00 h 1,5 km/h (1 Bft)
08.06.2012 04:00 21,5 C 14,5 C 0,0 UV-I 0,0 C 60 % 89 % 0 % 1003,2 hPa 0,0 l/m 0,9 km/h (0 Bft) 0,00 h 0,00 h 2,2 km/h (1 Bft)
08.06.2012 05:00 21,4 C 15,0 C 0,0 UV-I 0,0 C 59 % 87 % 0 % 1003,8 hPa 0,0 l/m 3,0 km/h (1 Bft) 0,00 h 0,00 h 7,5 km/h (2 Bft)
08.06.2012 06:00 21,2 C 15,0 C 0,0 UV-I 0,0 C 59 % 83 % 0 % 1004,2 hPa 0,0 l/m 2,9 km/h (1 Bft) 0,00 h 0,00 h 5,9 km/h (2 Bft)
08.06.2012 07:00 21,2 C 15,5 C 0,3 UV-I 0,0 C 58 % 81 % 0 % 1004,4 hPa 0,0 l/m 4,3 km/h (1 Bft) 0,00 h 0,00 h 10,8 km/h (2 Bft)
08.06.2012 08:00 21,4 C 16,5 C 1,2 UV-I 4,9 C 57 % 76 % 86 % 1004,7 hPa 0,0 l/m 6,7 km/h (2 Bft) 0,80 h 0,00 h 13,6 km/h (3 Bft)
08.06.2012 09:00 21,5 C 17,8 C 3,5 UV-I 6,1 C 55 % 70 % 100 % 1004,9 hPa 0,0 l/m 8,5 km/h (2 Bft) 1,00 h 0,00 h 15,5 km/h (3 Bft)
08.06.2012 10:00 21,7 C 18,5 C 3,8 UV-I 5,1 C 53 % 65 % 100 % 1004,7 hPa 0,0 l/m 9,5 km/h (2 Bft) 1,00 h 0,00 h 16,3 km/h (3 Bft)
08.06.2012 11:00 22,0 C 18,3 C 1,3 UV-I 2,3 C 52 % 65 % 64 % 1005,0 hPa 0,0 l/m 8,5 km/h (2 Bft) 0,13 h 0,00 h 14,1 km/h (3 Bft)
08.06.2012 12:00 22,1 C 19,1 C 2,2 UV-I 4,0 C 52 % 63 % 97 % 1005,3 hPa 0,0 l/m 9,1 km/h (2 Bft) 0,93 h 0,00 h 16,4 km/h (3 Bft)
08.06.2012 13:00 22,5 C 19,9 C 1,9 UV-I 3,7 C 50 % 60 % 93 % 1005,5 hPa 0,0 l/m 10,2 km/h (2 Bft) 0,83 h 0,00 h 17,2 km/h (3 Bft)
08.06.2012 14:00 23,1 C 20,1 C 2,1 UV-I 3,5 C 49 % 59 % 88 % 1005,7 hPa 0,0 l/m 10,6 km/h (2 Bft) 0,73 h 0,00 h 22,4 km/h (4 Bft)
08.06.2012 15:00 24,3 C 20,3 C 2,0 UV-I 2,9 C 47 % 61 % 69 % 1006,0 hPa 0,7 l/m 11,6 km/h (2 Bft) 0,53 h 0,07 h 20,0 km/h (4 Bft)
08.06.2012 16:00 25,1 C 20,0 C 2,8 UV-I 3,7 C 46 % 64 % 91 % 1004,7 hPa 0,0 l/m 8,1 km/h (2 Bft) 0,73 h 0,00 h 14,7 km/h (3 Bft)
08.06.2012 17:00 25,5 C 20,9 C 3,6 UV-I 3,8 C 43 % 54 % 93 % 1005,0 hPa 0,0 l/m 11,0 km/h (2 Bft) 0,83 h 0,00 h 20,4 km/h (4 Bft)
08.06.2012 18:00 25,2 C 20,2 C 0,9 UV-I 1,7 C 42 % 54 % 46 % 1005,9 hPa 0,0 l/m 9,1 km/h (2 Bft) 0,20 h 0,00 h 15,8 km/h (3 Bft)
08.06.2012 19:00 24,2 C 18,3 C 0,3 UV-I 0,1 C 44 % 63 % 4 % 1007,3 hPa 0,0 l/m 5,6 km/h (1 Bft) 0,00 h 0,00 h 13,0 km/h (3 Bft)
08.06.2012 20:00 23,4 C 17,8 C 0,0 UV-I 0,0 C 45 % 63 % 0 % 1007,6 hPa 0,0 l/m 7,3 km/h (2 Bft) 0,00 h 0,00 h 16,2 km/h (3 Bft)
08.06.2012 21:00 23,0 C 16,9 C 0,0 UV-I 0,0 C 47 % 67 % 0 % 1008,1 hPa 0,0 l/m 4,5 km/h (1 Bft) 0,00 h 0,00 h 9,8 km/h (2 Bft)
08.06.2012 22:00 22,5 C 15,5 C 0,0 UV-I 0,0 C 47 % 68 % 0 % 1008,9 hPa 0,0 l/m 3,4 km/h (1 Bft) 0,00 h 0,00 h 6,1 km/h (2 Bft)
08.06.2012 23:00 22,1 C 14,6 C 0,0 UV-I 0,0 C 49 % 74 % 0 % 1009,3 hPa 1,5 l/m 3,1 km/h (1 Bft) 0,00 h 0,40 h 6,3 km/h (2 Bft)
09.06.2012 00:00 21,8 C 13,0 C 0,0 UV-I 0,0 C 52 % 86 % 0 % 1010,0 hPa 0,4 l/m 2,7 km/h (1 Bft) 0,00 h 0,07 h 5,9 km/h (2 Bft)
09.06.2012 01:00 21,4 C 12,3 C 0,0 UV-I 0,0 C 53 % 89 % 0 % 1010,1 hPa 0,1 l/m 1,3 km/h (1 Bft) 0,00 h 0,00 h 3,8 km/h (1 Bft)
09.06.2012 02:00 21,1 C 12,0 C 0,0 UV-I 0,0 C 54 % 91 % 0 % 1010,1 hPa 0,0 l/m 2,0 km/h (1 Bft) 0,00 h 0,00 h 5,5 km/h (1 Bft)
09.06.2012 03:00 20,9 C 11,5 C 0,0 UV-I 0,0 C 54 % 90 % 0 % 1010,7 hPa 0,0 l/m 3,7 km/h (1 Bft) 0,00 h 0,00 h 8,2 km/h (2 Bft)
09.06.2012 04:00 20,7 C 10,9 C 0,0 UV-I 0,0 C 52 % 88 % 0 % 1010,6 hPa 0,0 l/m 4,2 km/h (1 Bft) 0,00 h 0,00 h 8,7 km/h (2 Bft)
09.06.2012 05:00 20,5 C 10,5 C 0,0 UV-I 0,0 C 52 % 87 % 0 % 1011,0 hPa 0,0 l/m 4,8 km/h (1 Bft) 0,00 h 0,00 h 10,8 km/h (2 Bft)
09.06.2012 06:00 20,3 C 10,5 C 0,0 UV-I 0,0 C 50 % 85 % 0 % 1011,3 hPa 0,0 l/m 6,3 km/h (2 Bft) 0,00 h 0,00 h 14,3 km/h (3 Bft)
09.06.2012 07:00 20,2 C 11,2 C 0,2 UV-I 0,0 C 50 % 83 % 0 % 1011,8 hPa 0,0 l/m 6,7 km/h (2 Bft) 0,00 h 0,00 h 15,2 km/h (3 Bft)
09.06.2012 08:00 20,2 C 12,4 C 0,8 UV-I 4,6 C 49 % 79 % 86 % 1011,8 hPa 0,0 l/m 9,3 km/h (2 Bft) 0,83 h 0,00 h 16,7 km/h (3 Bft)
09.06.2012 09:00 20,4 C 13,8 C 2,8 UV-I 5,3 C 49 % 73 % 99 % 1012,3 hPa 0,0 l/m 9,8 km/h (2 Bft) 1,00 h 0,00 h 19,3 km/h (3 Bft)
09.06.2012 10:00 20,6 C 15,0 C 4,5 UV-I 6,0 C 47 % 68 % 100 % 1012,0 hPa 0,0 l/m 10,2 km/h (2 Bft) 1,00 h 0,00 h 16,9 km/h (3 Bft)
09.06.2012 11:00 20,9 C 15,6 C 2,8 UV-I 4,7 C 46 % 64 % 99 % 1012,3 hPa 0,0 l/m 12,0 km/h (2 Bft) 1,00 h 0,00 h 20,6 km/h (4 Bft)
09.06.2012 12:00 21,1 C 16,4 C 2,3 UV-I 4,5 C 45 % 62 % 100 % 1012,3 hPa 0,0 l/m 11,8 km/h (2 Bft) 1,00 h 0,00 h 23,6 km/h (4 Bft)
09.06.2012 13:00 21,6 C 17,1 C 2,2 UV-I 3,9 C 45 % 59 % 95 % 1012,3 hPa 0,0 l/m 10,4 km/h (2 Bft) 0,87 h 0,00 h 16,2 km/h (3 Bft)
09.06.2012 14:00 21,9 C 16,2 C 1,1 UV-I 1,6 C 44 % 62 % 45 % 1012,6 hPa 0,0 l/m 10,5 km/h (2 Bft) 0,00 h 0,00 h 17,2 km/h (3 Bft)
09.06.2012 15:00 22,6 C 17,2 C 2,3 UV-I 3,7 C 44 % 59 % 93 % 1012,6 hPa 0,0 l/m 11,6 km/h (2 Bft) 0,83 h 0,00 h 23,5 km/h (4 Bft)
09.06.2012 16:00 23,0 C 16,9 C 1,7 UV-I 2,1 C 41 % 58 % 60 % 1012,5 hPa 0,0 l/m 11,7 km/h (2 Bft) 0,33 h 0,00 h 20,4 km/h (4 Bft)
09.06.2012 17:00 23,9 C 18,0 C 3,6 UV-I 3,9 C 39 % 54 % 98 % 1011,1 hPa 0,0 l/m 11,9 km/h (2 Bft) 1,00 h 0,00 h 18,6 km/h (3 Bft)
09.06.2012 18:00 23,9 C 17,8 C 1,1 UV-I 2,2 C 38 % 55 % 61 % 1011,7 hPa 0,0 l/m 8,8 km/h (2 Bft) 0,17 h 0,00 h 15,8 km/h (3 Bft)
09.06.2012 19:00 23,1 C 17,3 C 0,5 UV-I 0,3 C 39 % 55 % 9 % 1012,5 hPa 0,0 l/m 8,9 km/h (2 Bft) 0,00 h 0,00 h 15,6 km/h (3 Bft)
09.06.2012 20:00 22,5 C 16,6 C 0,1 UV-I 0,0 C 41 % 59 % 0 % 1012,1 hPa 0,0 l/m 4,9 km/h (1 Bft) 0,00 h 0,00 h 10,1 km/h (2 Bft)
09.06.2012 21:00 22,0 C 15,4 C 0,0 UV-I 0,0 C 43 % 64 % 0 % 1012,5 hPa 0,0 l/m 4,1 km/h (1 Bft) 0,00 h 0,00 h 8,5 km/h (2 Bft)
09.06.2012 22:00 21,4 C 14,3 C 0,0 UV-I 0,0 C 44 % 69 % 0 % 1012,9 hPa 0,0 l/m 1,5 km/h (1 Bft) 0,00 h 0,00 h 4,2 km/h (1 Bft)
09.06.2012 23:00 21,1 C 13,2 C 0,0 UV-I 0,0 C 46 % 74 % 0 % 1012,7 hPa 0,0 l/m 0,3 km/h (0 Bft) 0,00 h 0,00 h 1,2 km/h (1 Bft)
10.06.2012 00:00 20,8 C 12,3 C 0,0 UV-I 0,0 C 47 % 77 % 0 % 1012,9 hPa 0,0 l/m 0,7 km/h (0 Bft) 0,00 h 0,00 h 3,4 km/h (1 Bft)
10.06.2012 01:00 20,6 C 12,0 C 0,0 UV-I 0,0 C 47 % 78 % 0 % 1012,7 hPa 0,0 l/m 1,1 km/h (0 Bft) 0,00 h 0,00 h 3,7 km/h (1 Bft)
10.06.2012 02:00 20,5 C 11,7 C 0,0 UV-I 0,0 C 48 % 79 % 0 % 1012,5 hPa 0,0 l/m 1,2 km/h (1 Bft) 0,00 h 0,00 h 3,9 km/h (1 Bft)
10.06.2012 03:00 20,3 C 11,2 C 0,0 UV-I 0,0 C 48 % 81 % 0 % 1013,0 hPa 0,0 l/m 1,4 km/h (1 Bft) 0,00 h 0,00 h 4,5 km/h (1 Bft)
10.06.2012 04:00 20,2 C 11,0 C 0,0 UV-I 0,0 C 48 % 81 % 0 % 1013,0 hPa 0,0 l/m 1,3 km/h (1 Bft) 0,00 h 0,00 h 4,0 km/h (1 Bft)
10.06.2012 05:00 20,0 C 10,6 C 0,0 UV-I 0,0 C 49 % 83 % 0 % 1013,1 hPa 0,0 l/m 1,1 km/h (0 Bft) 0,00 h 0,00 h 2,6 km/h (1 Bft)
10.06.2012 06:00 20,0 C 11,5 C 0,0 UV-I 0,0 C 49 % 82 % 0 % 1012,9 hPa 0,0 l/m 3,0 km/h (1 Bft) 0,00 h 0,00 h 7,1 km/h (2 Bft)
10.06.2012 07:00 20,0 C 12,1 C 0,2 UV-I 0,0 C 49 % 79 % 1 % 1012,8 hPa 0,0 l/m 1,1 km/h (1 Bft) 0,00 h 0,00 h 2,9 km/h (1 Bft)
10.06.2012 08:00 20,0 C 13,8 C 1,2 UV-I 7,0 C 49 % 74 % 87 % 1012,3 hPa 0,0 l/m 1,9 km/h (1 Bft) 0,83 h 0,00 h 5,6 km/h (1 Bft)
10.06.2012 09:00 20,2 C 16,3 C 4,1 UV-I 8,5 C 48 % 64 % 100 % 1012,2 hPa 0,0 l/m 3,6 km/h (1 Bft) 1,00 h 0,00 h 7,1 km/h (2 Bft)
10.06.2012 10:00 20,4 C 17,8 C 5,3 UV-I 8,2 C 47 % 59 % 100 % 1011,6 hPa 0,0 l/m 3,9 km/h (1 Bft) 1,00 h 0,00 h 8,6 km/h (2 Bft)
10.06.2012 11:00 20,7 C 18,6 C 3,3 UV-I 6,6 C 47 % 55 % 100 % 1010,9 hPa 0,0 l/m 3,9 km/h (1 Bft) 1,00 h 0,00 h 8,3 km/h (2 Bft)
10.06.2012 12:00 21,2 C 19,1 C 2,0 UV-I 5,1 C 46 % 52 % 100 % 1010,6 hPa 0,0 l/m 3,7 km/h (1 Bft) 1,00 h 0,00 h 8,1 km/h (2 Bft)
10.06.2012 13:00 21,8 C 19,2 C 1,8 UV-I 3,7 C 46 % 52 % 93 % 1010,1 hPa 0,0 l/m 3,2 km/h (1 Bft) 0,87 h 0,00 h 7,1 km/h (2 Bft)
10.06.2012 14:00 22,4 C 20,4 C 2,4 UV-I 5,6 C 44 % 49 % 100 % 1009,3 hPa 0,0 l/m 3,3 km/h (1 Bft) 1,00 h 0,00 h 7,8 km/h (2 Bft)
10.06.2012 15:00 23,8 C 21,6 C 2,7 UV-I 6,4 C 42 % 47 % 100 % 1008,6 hPa 0,0 l/m 3,4 km/h (1 Bft) 1,00 h 0,00 h 7,7 km/h (2 Bft)
10.06.2012 16:00 25,1 C 22,2 C 2,9 UV-I 5,6 C 39 % 45 % 100 % 1007,6 hPa 0,0 l/m 4,6 km/h (1 Bft) 1,00 h 0,00 h 7,8 km/h (2 Bft)
10.06.2012 17:00 24,9 C 21,2 C 1,8 UV-I 2,5 C 40 % 49 % 70 % 1007,3 hPa 0,0 l/m 5,1 km/h (1 Bft) 0,37 h 0,00 h 8,8 km/h (2 Bft)
10.06.2012 18:00 24,5 C 21,0 C 1,3 UV-I 3,5 C 41 % 49 % 81 % 1006,7 hPa 0,0 l/m 4,8 km/h (1 Bft) 0,67 h 0,00 h 8,5 km/h (2 Bft)
10.06.2012 19:00 23,9 C 20,1 C 0,5 UV-I 0,1 C 42 % 49 % 3 % 1006,8 hPa 0,0 l/m 2,1 km/h (1 Bft) 0,00 h 0,00 h 5,1 km/h (1 Bft)
10.06.2012 20:00 23,4 C 19,4 C 0,1 UV-I 0,0 C 43 % 50 % 0 % 1006,6 hPa 0,0 l/m 0,8 km/h (0 Bft) 0,00 h 0,00 h 1,6 km/h (1 Bft)
10.06.2012 21:00 23,0 C 17,8 C 0,0 UV-I 0,0 C 44 % 58 % 0 % 1006,4 hPa 0,0 l/m 0,0 km/h (0 Bft) 0,00 h 0,00 h 0,0 km/h (0 Bft)
10.06.2012 22:00 22,5 C 15,4 C 0,0 UV-I 0,0 C 46 % 68 % 0 % 1006,5 hPa 0,0 l/m 0,0 km/h (0 Bft) 0,00 h 0,00 h 0,0 km/h (0 Bft)
10.06.2012 23:00 22,1 C 13,7 C 0,0 UV-I 0,0 C 47 % 75 % 0 % 1006,3 hPa 0,0 l/m 0,0 km/h (0 Bft) 0,00 h 0,00 h 0,0 km/h (0 Bft)
Min-Datum _ 05.06.12 05.06.12 04.06.12 04.06.12 05.06.12 10.06.12 04.06.12 07.06.12 - 04.06.12 - - 04.06.12
_ Min-Zeit 07:02 06:28 00:00 00:00 16:58 16:24 00:00 20:56 - 00:00 - - 00:00
Minimum _ 18,7 C 6,2 C 0,0 UV-I 0,0 C 37 % 43 % 0 % 997,6 hPa - 0,0 km/h (0 Bft) - - 0,0 km/h (0 Bft)
Max-Datum _ 08.06.12 07.06.12 08.06.12 05.06.12 08.06.12 04.06.12 04.06.12 05.06.12 06.06.12 04.06.12 04.06.12 04.06.12 08.06.12
_ Max-Zeit 17:34 15:26 10:10 10:24 00:46 08:52 09:42 10:56 12:28 18:42 09:40 02:34 20:02
Maximum _ 25,6 C 23,8 C 5,6 UV-I 10,7 C 61 % 98 % 100 % 1019,4 hPa 3,6 l/m 21,3 km/h
W (4 Bft)
0,03 h 0,03 h 54,6 km/h
O-SO (7 Bft)
Durchschnitt _ 21,3 C 14,7 C 0,8 UV-I 1,6 C 51 % 77 % 32 % 1009,1 hPa #25,9 l/m 3,9 km/h (1 Bft) #43:42 h #11:50 h 8,0 km/h (2 Bft)
© 2012 W. Hausmann